Newbern, Virginia
Current Conditions -  °F | °C
As of 3:15 PM on Sunday 23 Nov 2014 (Local Time) from KPSK Reporting Station
Light Rain Light Rain  
Wind Chill: 48°   Ceiling: 1800
Heat Index: 48°   Visibility: 7mi
Dew Point: 46°   Wind: 0mph
Humidity: 93%   Direction: NA
Pressure: 30.01"   Gusts: NA
Location:  37.07°N, 80.69°W
Report Text: KPSK 232015Z AUTO 00000KT 7SM -RA OVC018 09/08 A3001 RMK AO2
Loading
Personal Weather Stations






























Interactive Weather Map New forecast layout! Learn more

10-Day Weather Forecast

Advertisements
Track Severe Weather on mobile